sensor_id;sensor_type;location;lat;lon;timestamp;P1;durP1;ratioP1;P2;durP2;ratioP2
3967;SDS011;9221;42.646;23.380;2022-11-20T00:02:14;9.30;;;4.20;;
3967;SDS011;9221;42.646;23.380;2022-11-20T00:04:40;15.13;;;5.70;;
3967;SDS011;9221;42.646;23.380;2022-11-20T00:07:05;7.93;;;4.60;;
3967;SDS011;9221;42.646;23.380;2022-11-20T00:09:30;12.43;;;4.77;;
3967;SDS011;9221;42.646;23.380;2022-11-20T00:11:56;9.90;;;4.90;;
3967;SDS011;9221;42.646;23.380;2022-11-20T00:14:21;13.57;;;5.20;;
3967;SDS011;9221;42.646;23.380;2022-11-20T00:16:47;7.53;;;3.60;;
3967;SDS011;9221;42.646;23.380;2022-11-20T00:19:12;10.23;;;4.70;;
3967;SDS011;9221;42.646;23.380;2022-11-20T00:21:37;15.83;;;5.00;;
3967;SDS011;9221;42.646;23.380;2022-11-20T00:24:03;9.23;;;4.80;;
3967;SDS011;9221;42.646;23.380;2022-11-20T00:26:29;11.30;;;4.00;;
3967;SDS011;9221;42.646;23.380;2022-11-20T00:28:59;11.10;;;4.50;;
3967;SDS011;9221;42.646;23.380;2022-11-20T00:31:26;6.77;;;3.57;;
3967;SDS011;9221;42.646;23.380;2022-11-20T00:33:52;6.03;;;2.90;;
3967;SDS011;9221;42.646;23.380;2022-11-20T00:36:22;6.83;;;3.57;;
3967;SDS011;9221;42.646;23.380;2022-11-20T00:38:56;4.53;;;1.67;;
3967;SDS011;9221;42.646;23.380;2022-11-20T00:41:22;5.10;;;1.93;;
3967;SDS011;9221;42.646;23.380;2022-11-20T00:43:49;9.00;;;2.30;;
3967;SDS011;9221;42.646;23.380;2022-11-20T00:46:17;5.67;;;2.40;;
3967;SDS011;9221;42.646;23.380;2022-11-20T00:48:44;21.47;;;2.27;;
3967;SDS011;9221;42.646;23.380;2022-11-20T00:51:11;2.70;;;1.83;;
3967;SDS011;9221;42.646;23.380;2022-11-20T00:53:38;5.40;;;2.20;;
3967;SDS011;9221;42.646;23.380;2022-11-20T00:56:05;8.43;;;2.67;;
3967;SDS011;9221;42.646;23.380;2022-11-20T00:58:33;5.13;;;2.00;;
3967;SDS011;9221;42.646;23.380;2022-11-20T01:01:19;4.30;;;2.10;;
3967;SDS011;9221;42.646;23.380;2022-11-20T01:03:47;7.07;;;1.50;;
3967;SDS011;9221;42.646;23.380;2022-11-20T01:09:00;3.40;;;1.87;;
3967;SDS011;9221;42.646;23.380;2022-11-20T01:11:30;10.30;;;2.00;;
3967;SDS011;9221;42.646;23.380;2022-11-20T01:13:58;3.53;;;1.60;;
3967;SDS011;9221;42.646;23.380;2022-11-20T01:16:34;3.80;;;1.47;;
3967;SDS011;9221;42.646;23.380;2022-11-20T01:19:03;3.07;;;1.83;;
3967;SDS011;9221;42.646;23.380;2022-11-20T01:21:40;3.23;;;1.70;;
3967;SDS011;9221;42.646;23.380;2022-11-20T01:24:08;4.37;;;1.70;;
3967;SDS011;9221;42.646;23.380;2022-11-20T01:26:37;4.27;;;2.03;;
3967;SDS011;9221;42.646;23.380;2022-11-20T01:29:04;3.13;;;1.50;;
3967;SDS011;9221;42.646;23.380;2022-11-20T01:31:34;2.70;;;1.70;;
3967;SDS011;9221;42.646;23.380;2022-11-20T01:34:03;6.90;;;2.40;;
3967;SDS011;9221;42.646;23.380;2022-11-20T01:36:31;6.50;;;1.80;;
3967;SDS011;9221;42.646;23.380;2022-11-20T01:38:59;5.77;;;2.03;;
3967;SDS011;9221;42.646;23.380;2022-11-20T01:41:28;8.07;;;1.90;;
3967;SDS011;9221;42.646;23.380;2022-11-20T01:44:15;8.87;;;1.97;;
3967;SDS011;9221;42.646;23.380;2022-11-20T01:46:43;8.70;;;2.10;;
3967;SDS011;9221;42.646;23.380;2022-11-20T01:49:58;9.63;;;1.70;;
3967;SDS011;9221;42.646;23.380;2022-11-20T01:52:17;2.20;;;1.70;;
3967;SDS011;9221;42.646;23.380;2022-11-20T01:57:21;6.90;;;2.00;;
3967;SDS011;9221;42.646;23.380;2022-11-20T01:59:50;4.40;;;2.10;;
3967;SDS011;9221;42.646;23.380;2022-11-20T02:02:22;6.93;;;2.27;;
3967;SDS011;9221;42.646;23.380;2022-11-20T02:04:48;9.23;;;2.00;;
3967;SDS011;9221;42.646;23.380;2022-11-20T02:07:16;2.77;;;1.80;;
3967;SDS011;9221;42.646;23.380;2022-11-20T02:09:43;4.40;;;1.97;;
3967;SDS011;9221;42.646;23.380;2022-11-20T02:12:08;3.67;;;1.50;;
3967;SDS011;9221;42.646;23.380;2022-11-20T02:14:53;4.60;;;2.10;;
3967;SDS011;9221;42.646;23.380;2022-11-20T02:17:19;7.20;;;2.00;;
3967;SDS011;9221;42.646;23.380;2022-11-20T02:19:45;5.43;;;2.07;;
3967;SDS011;9221;42.646;23.380;2022-11-20T02:22:22;2.57;;;1.47;;
3967;SDS011;9221;42.646;23.380;2022-11-20T02:24:59;5.60;;;2.13;;
3967;SDS011;9221;42.646;23.380;2022-11-20T02:27:27;3.13;;;1.90;;
3967;SDS011;9221;42.646;23.380;2022-11-20T02:29:55;5.57;;;1.40;;
3967;SDS011;9221;42.646;23.380;2022-11-20T02:32:29;1.10;;;0.67;;
3967;SDS011;9221;42.646;23.380;2022-11-20T02:34:56;3.00;;;1.10;;
3967;SDS011;9221;42.646;23.380;2022-11-20T02:37:23;3.83;;;1.00;;
3967;SDS011;9221;42.646;23.380;2022-11-20T02:39:58;3.07;;;1.10;;
3967;SDS011;9221;42.646;23.380;2022-11-20T02:42:23;1.00;;;0.50;;
3967;SDS011;9221;42.646;23.380;2022-11-20T02:44:49;0.83;;;0.60;;
3967;SDS011;9221;42.646;23.380;2022-11-20T02:47:14;1.13;;;0.50;;
3967;SDS011;9221;42.646;23.380;2022-11-20T02:49:40;0.77;;;0.63;;
3967;SDS011;9221;42.646;23.380;2022-11-20T02:52:05;1.60;;;0.60;;
3967;SDS011;9221;42.646;23.380;2022-11-20T02:54:31;6.27;;;0.63;;
3967;SDS011;9221;42.646;23.380;2022-11-20T02:56:58;2.00;;;0.50;;
3967;SDS011;9221;42.646;23.380;2022-11-20T02:59:23;3.33;;;0.60;;
3967;SDS011;9221;42.646;23.380;2022-11-20T03:01:48;2.00;;;0.50;;
3967;SDS011;9221;42.646;23.380;2022-11-20T03:04:14;2.73;;;0.50;;
3967;SDS011;9221;42.646;23.380;2022-11-20T03:06:39;1.00;;;0.50;;
3967;SDS011;9221;42.646;23.380;2022-11-20T03:09:05;2.70;;;0.50;;
3967;SDS011;9221;42.646;23.380;2022-11-20T03:11:30;3.20;;;0.60;;
3967;SDS011;9221;42.646;23.380;2022-11-20T03:13:55;0.80;;;0.30;;
3967;SDS011;9221;42.646;23.380;2022-11-20T03:16:22;2.97;;;0.60;;
3967;SDS011;9221;42.646;23.380;2022-11-20T03:18:48;3.70;;;0.73;;
3967;SDS011;9221;42.646;23.380;2022-11-20T03:21:14;0.80;;;0.60;;
3967;SDS011;9221;42.646;23.380;2022-11-20T03:23:40;4.13;;;0.63;;
3967;SDS011;9221;42.646;23.380;2022-11-20T03:28:34;4.77;;;0.50;;
3967;SDS011;9221;42.646;23.380;2022-11-20T03:31:04;1.97;;;0.50;;
3967;SDS011;9221;42.646;23.380;2022-11-20T03:33:34;1.73;;;0.37;;
3967;SDS011;9221;42.646;23.380;2022-11-20T03:36:06;2.77;;;0.40;;
3967;SDS011;9221;42.646;23.380;2022-11-20T03:38:35;2.80;;;0.43;;
3967;SDS011;9221;42.646;23.380;2022-11-20T03:41:01;1.37;;;0.50;;
3967;SDS011;9221;42.646;23.380;2022-11-20T03:43:31;0.83;;;0.40;;
3967;SDS011;9221;42.646;23.380;2022-11-20T03:45:57;2.00;;;0.57;;
3967;SDS011;9221;42.646;23.380;2022-11-20T03:48:23;1.23;;;0.50;;
3967;SDS011;9221;42.646;23.380;2022-11-20T03:50:49;4.10;;;0.40;;
3967;SDS011;9221;42.646;23.380;2022-11-20T03:53:15;1.90;;;0.50;;
3967;SDS011;9221;42.646;23.380;2022-11-20T03:55:41;2.27;;;0.50;;
3967;SDS011;9221;42.646;23.380;2022-11-20T03:58:07;1.53;;;0.50;;
3967;SDS011;9221;42.646;23.380;2022-11-20T04:00:32;0.90;;;0.40;;
3967;SDS011;9221;42.646;23.380;2022-11-20T04:02:58;7.30;;;0.50;;
3967;SDS011;9221;42.646;23.380;2022-11-20T04:05:24;4.33;;;0.50;;
3967;SDS011;9221;42.646;23.380;2022-11-20T04:07:50;1.07;;;0.47;;
3967;SDS011;9221;42.646;23.380;2022-11-20T04:10:15;3.50;;;0.57;;
3967;SDS011;9221;42.646;23.380;2022-11-20T04:12:41;3.30;;;0.50;;
3967;SDS011;9221;42.646;23.380;2022-11-20T04:15:06;0.70;;;0.40;;
3967;SDS011;9221;42.646;23.380;2022-11-20T04:17:32;0.87;;;0.40;;
3967;SDS011;9221;42.646;23.380;2022-11-20T04:19:57;1.43;;;0.50;;
3967;SDS011;9221;42.646;23.380;2022-11-20T04:22:23;2.57;;;0.40;;
3967;SDS011;9221;42.646;23.380;2022-11-20T04:24:48;2.27;;;0.50;;
3967;SDS011;9221;42.646;23.380;2022-11-20T04:27:13;3.50;;;0.67;;
3967;SDS011;9221;42.646;23.380;2022-11-20T04:29:39;1.13;;;0.37;;
3967;SDS011;9221;42.646;23.380;2022-11-20T04:32:04;2.00;;;0.40;;
3967;SDS011;9221;42.646;23.380;2022-11-20T04:34:30;3.70;;;0.70;;
3967;SDS011;9221;42.646;23.380;2022-11-20T04:36:55;0.60;;;0.40;;
3967;SDS011;9221;42.646;23.380;2022-11-20T04:39:20;1.47;;;0.50;;
3967;SDS011;9221;42.646;23.380;2022-11-20T04:41:46;0.80;;;0.30;;
3967;SDS011;9221;42.646;23.380;2022-11-20T04:44:11;0.60;;;0.40;;
3967;SDS011;9221;42.646;23.380;2022-11-20T04:46:40;0.60;;;0.30;;
3967;SDS011;9221;42.646;23.380;2022-11-20T04:49:07;5.60;;;0.53;;
3967;SDS011;9221;42.646;23.380;2022-11-20T04:51:33;1.20;;;0.50;;
3967;SDS011;9221;42.646;23.380;2022-11-20T04:53:59;1.03;;;0.40;;
3967;SDS011;9221;42.646;23.380;2022-11-20T04:56:25;3.13;;;0.50;;
3967;SDS011;9221;42.646;23.380;2022-11-20T04:58:50;1.23;;;0.40;;
3967;SDS011;9221;42.646;23.380;2022-11-20T05:01:17;1.50;;;0.40;;
3967;SDS011;9221;42.646;23.380;2022-11-20T05:03:45;1.30;;;0.40;;
3967;SDS011;9221;42.646;23.380;2022-11-20T05:06:11;2.60;;;0.73;;
3967;SDS011;9221;42.646;23.380;2022-11-20T05:08:38;0.70;;;0.40;;
3967;SDS011;9221;42.646;23.380;2022-11-20T05:11:08;1.10;;;0.50;;
3967;SDS011;9221;42.646;23.380;2022-11-20T05:13:36;1.17;;;0.50;;
3967;SDS011;9221;42.646;23.380;2022-11-20T05:16:05;2.10;;;0.30;;
3967;SDS011;9221;42.646;23.380;2022-11-20T05:18:34;0.83;;;0.53;;
3967;SDS011;9221;42.646;23.380;2022-11-20T05:21:00;2.40;;;0.50;;
3967;SDS011;9221;42.646;23.380;2022-11-20T05:23:26;5.80;;;0.67;;
3967;SDS011;9221;42.646;23.380;2022-11-20T05:25:56;1.70;;;0.50;;
3967;SDS011;9221;42.646;23.380;2022-11-20T05:28:22;1.07;;;0.50;;
3967;SDS011;9221;42.646;23.380;2022-11-20T05:30:48;2.77;;;0.60;;
3967;SDS011;9221;42.646;23.380;2022-11-20T05:33:15;2.40;;;0.40;;
3967;SDS011;9221;42.646;23.380;2022-11-20T05:35:41;1.33;;;0.60;;
3967;SDS011;9221;42.646;23.380;2022-11-20T05:38:07;2.20;;;0.97;;
3967;SDS011;9221;42.646;23.380;2022-11-20T05:40:32;5.20;;;0.70;;
3967;SDS011;9221;42.646;23.380;2022-11-20T05:42:57;0.77;;;0.47;;
3967;SDS011;9221;42.646;23.380;2022-11-20T05:45:24;3.23;;;1.00;;
3967;SDS011;9221;42.646;23.380;2022-11-20T05:47:49;1.90;;;0.77;;
3967;SDS011;9221;42.646;23.380;2022-11-20T05:50:15;1.20;;;0.80;;
3967;SDS011;9221;42.646;23.380;2022-11-20T05:52:40;10.23;;;1.33;;
3967;SDS011;9221;42.646;23.380;2022-11-20T05:55:06;4.63;;;0.93;;
3967;SDS011;9221;42.646;23.380;2022-11-20T05:57:32;0.80;;;0.40;;
3967;SDS011;9221;42.646;23.380;2022-11-20T05:59:57;7.37;;;1.70;;
3967;SDS011;9221;42.646;23.380;2022-11-20T06:02:23;3.13;;;1.43;;
3967;SDS011;9221;42.646;23.380;2022-11-20T06:04:48;3.80;;;1.47;;
3967;SDS011;9221;42.646;23.380;2022-11-20T06:07:14;2.63;;;1.57;;
3967;SDS011;9221;42.646;23.380;2022-11-20T06:09:39;4.13;;;0.50;;
3967;SDS011;9221;42.646;23.380;2022-11-20T06:12:05;1.53;;;0.93;;
3967;SDS011;9221;42.646;23.380;2022-11-20T06:14:30;6.30;;;1.60;;
3967;SDS011;9221;42.646;23.380;2022-11-20T06:16:56;3.80;;;1.40;;
3967;SDS011;9221;42.646;23.380;2022-11-20T06:19:21;5.10;;;0.87;;
3967;SDS011;9221;42.646;23.380;2022-11-20T06:21:47;3.87;;;0.80;;
3967;SDS011;9221;42.646;23.380;2022-11-20T06:24:15;1.33;;;0.70;;
3967;SDS011;9221;42.646;23.380;2022-11-20T06:26:41;2.90;;;1.00;;
3967;SDS011;9221;42.646;23.380;2022-11-20T06:29:07;3.80;;;1.00;;
3967;SDS011;9221;42.646;23.380;2022-11-20T06:31:32;3.73;;;0.97;;
3967;SDS011;9221;42.646;23.380;2022-11-20T06:34:03;7.40;;;1.30;;
3967;SDS011;9221;42.646;23.380;2022-11-20T06:36:30;2.13;;;0.80;;
3967;SDS011;9221;42.646;23.380;2022-11-20T06:38:55;9.13;;;1.37;;
3967;SDS011;9221;42.646;23.380;2022-11-20T06:41:21;2.93;;;0.93;;
3967;SDS011;9221;42.646;23.380;2022-11-20T06:43:47;4.40;;;0.93;;
3967;SDS011;9221;42.646;23.380;2022-11-20T06:46:14;5.30;;;0.70;;
3967;SDS011;9221;42.646;23.380;2022-11-20T06:48:42;1.77;;;1.20;;
3967;SDS011;9221;42.646;23.380;2022-11-20T06:51:08;3.43;;;0.60;;
3967;SDS011;9221;42.646;23.380;2022-11-20T06:53:34;3.60;;;1.10;;
3967;SDS011;9221;42.646;23.380;2022-11-20T06:56:00;6.17;;;0.90;;
3967;SDS011;9221;42.646;23.380;2022-11-20T06:58:29;6.20;;;0.90;;
3967;SDS011;9221;42.646;23.380;2022-11-20T07:01:02;7.60;;;1.30;;
3967;SDS011;9221;42.646;23.380;2022-11-20T07:03:32;3.90;;;0.90;;
3967;SDS011;9221;42.646;23.380;2022-11-20T07:05:58;3.10;;;1.00;;
3967;SDS011;9221;42.646;23.380;2022-11-20T07:08:24;1.90;;;0.87;;
3967;SDS011;9221;42.646;23.380;2022-11-20T07:10:50;2.10;;;0.77;;
3967;SDS011;9221;42.646;23.380;2022-11-20T07:13:16;4.00;;;0.80;;
3967;SDS011;9221;42.646;23.380;2022-11-20T07:15:41;0.83;;;0.53;;
3967;SDS011;9221;42.646;23.380;2022-11-20T07:18:07;1.50;;;0.50;;
3967;SDS011;9221;42.646;23.380;2022-11-20T07:20:32;6.57;;;0.80;;
3967;SDS011;9221;42.646;23.380;2022-11-20T07:22:58;5.87;;;1.10;;
3967;SDS011;9221;42.646;23.380;2022-11-20T07:25:24;1.97;;;0.50;;
3967;SDS011;9221;42.646;23.380;2022-11-20T07:27:51;1.40;;;0.60;;
3967;SDS011;9221;42.646;23.380;2022-11-20T07:30:18;1.90;;;0.70;;
3967;SDS011;9221;42.646;23.380;2022-11-20T07:32:47;3.10;;;0.63;;
3967;SDS011;9221;42.646;23.380;2022-11-20T07:35:15;1.30;;;0.60;;
3967;SDS011;9221;42.646;23.380;2022-11-20T07:37:41;3.87;;;0.73;;
3967;SDS011;9221;42.646;23.380;2022-11-20T07:40:06;4.30;;;1.10;;
3967;SDS011;9221;42.646;23.380;2022-11-20T07:42:32;9.23;;;1.20;;
3967;SDS011;9221;42.646;23.380;2022-11-20T07:44:58;5.40;;;1.80;;
3967;SDS011;9221;42.646;23.380;2022-11-20T07:47:23;4.10;;;0.67;;
3967;SDS011;9221;42.646;23.380;2022-11-20T07:49:48;1.50;;;0.50;;
3967;SDS011;9221;42.646;23.380;2022-11-20T07:52:14;1.67;;;0.50;;
3967;SDS011;9221;42.646;23.380;2022-11-20T07:54:39;3.27;;;0.70;;
3967;SDS011;9221;42.646;23.380;2022-11-20T07:57:04;2.57;;;0.70;;
3967;SDS011;9221;42.646;23.380;2022-11-20T07:59:30;0.97;;;0.60;;
3967;SDS011;9221;42.646;23.380;2022-11-20T08:01:55;0.90;;;0.90;;
3967;SDS011;9221;42.646;23.380;2022-11-20T08:04:21;1.63;;;0.70;;
3967;SDS011;9221;42.646;23.380;2022-11-20T08:06:46;1.00;;;0.50;;
3967;SDS011;9221;42.646;23.380;2022-11-20T08:09:12;13.90;;;0.90;;
3967;SDS011;9221;42.646;23.380;2022-11-20T08:11:37;8.40;;;0.80;;
3967;SDS011;9221;42.646;23.380;2022-11-20T08:14:21;2.63;;;0.70;;
3967;SDS011;9221;42.646;23.380;2022-11-20T08:16:47;2.10;;;0.60;;
3967;SDS011;9221;42.646;23.380;2022-11-20T08:19:14;5.20;;;0.83;;
3967;SDS011;9221;42.646;23.380;2022-11-20T08:21:41;4.17;;;0.80;;
3967;SDS011;9221;42.646;23.380;2022-11-20T08:24:07;4.20;;;1.00;;
3967;SDS011;9221;42.646;23.380;2022-11-20T08:26:33;7.30;;;1.47;;
3967;SDS011;9221;42.646;23.380;2022-11-20T08:29:00;6.00;;;0.80;;
3967;SDS011;9221;42.646;23.380;2022-11-20T08:31:26;1.13;;;0.70;;
3967;SDS011;9221;42.646;23.380;2022-11-20T08:33:52;3.93;;;0.77;;
3967;SDS011;9221;42.646;23.380;2022-11-20T08:36:18;3.40;;;0.90;;
3967;SDS011;9221;42.646;23.380;2022-11-20T08:38:48;9.03;;;3.10;;
3967;SDS011;9221;42.646;23.380;2022-11-20T08:41:15;3.00;;;0.47;;
3967;SDS011;9221;42.646;23.380;2022-11-20T08:44:00;3.93;;;0.87;;
3967;SDS011;9221;42.646;23.380;2022-11-20T08:46:33;5.00;;;0.60;;
3967;SDS011;9221;42.646;23.380;2022-11-20T08:49:02;8.93;;;0.73;;
3967;SDS011;9221;42.646;23.380;2022-11-20T08:51:29;8.23;;;1.87;;
3967;SDS011;9221;42.646;23.380;2022-11-20T08:53:55;3.47;;;0.87;;
3967;SDS011;9221;42.646;23.380;2022-11-20T08:56:20;6.57;;;2.80;;
3967;SDS011;9221;42.646;23.380;2022-11-20T08:58:46;0.80;;;0.60;;
3967;SDS011;9221;42.646;23.380;2022-11-20T09:01:11;12.13;;;1.27;;
3967;SDS011;9221;42.646;23.380;2022-11-20T09:03:37;1.23;;;0.77;;
3967;SDS011;9221;42.646;23.380;2022-11-20T09:06:04;3.80;;;0.90;;
3967;SDS011;9221;42.646;23.380;2022-11-20T09:08:31;7.77;;;1.00;;
3967;SDS011;9221;42.646;23.380;2022-11-20T09:10:57;4.23;;;1.33;;
3967;SDS011;9221;42.646;23.380;2022-11-20T09:13:23;4.57;;;1.40;;
3967;SDS011;9221;42.646;23.380;2022-11-20T09:15:54;5.23;;;1.43;;
3967;SDS011;9221;42.646;23.380;2022-11-20T09:18:19;6.73;;;1.10;;
3967;SDS011;9221;42.646;23.380;2022-11-20T09:20:45;4.57;;;1.30;;
3967;SDS011;9221;42.646;23.380;2022-11-20T09:23:11;5.63;;;2.00;;
3967;SDS011;9221;42.646;23.380;2022-11-20T09:25:36;3.50;;;1.80;;
3967;SDS011;9221;42.646;23.380;2022-11-20T09:28:01;7.90;;;1.73;;
3967;SDS011;9221;42.646;23.380;2022-11-20T09:30:27;7.23;;;2.30;;
3967;SDS011;9221;42.646;23.380;2022-11-20T09:32:53;7.20;;;2.40;;
3967;SDS011;9221;42.646;23.380;2022-11-20T09:35:18;4.93;;;1.17;;
3967;SDS011;9221;42.646;23.380;2022-11-20T09:37:44;2.73;;;1.23;;
3967;SDS011;9221;42.646;23.380;2022-11-20T09:40:23;2.57;;;0.97;;
3967;SDS011;9221;42.646;23.380;2022-11-20T09:56:21;6.23;;;0.83;;
3967;SDS011;9221;42.646;23.380;2022-11-20T09:58:51;3.53;;;1.43;;
3967;SDS011;9221;42.646;23.380;2022-11-20T10:01:20;5.17;;;1.37;;
3967;SDS011;9221;42.646;23.380;2022-11-20T10:04:03;2.70;;;1.07;;
3967;SDS011;9221;42.646;23.380;2022-11-20T10:06:39;3.10;;;0.90;;
3967;SDS011;9221;42.646;23.380;2022-11-20T10:31:08;5.20;;;1.90;;
3967;SDS011;9221;42.646;23.380;2022-11-20T10:33:36;9.20;;;2.33;;
3967;SDS011;9221;42.646;23.380;2022-11-20T10:38:59;6.93;;;1.10;;
3967;SDS011;9221;42.646;23.380;2022-11-20T10:41:32;4.27;;;1.43;;
3967;SDS011;9221;42.646;23.380;2022-11-20T10:44:05;3.57;;;1.70;;
3967;SDS011;9221;42.646;23.380;2022-11-20T10:46:46;3.20;;;1.80;;
3967;SDS011;9221;42.646;23.380;2022-11-20T10:49:15;6.43;;;1.93;;
3967;SDS011;9221;42.646;23.380;2022-11-20T10:51:48;7.20;;;1.77;;
3967;SDS011;9221;42.646;23.380;2022-11-20T10:54:31;2.50;;;1.33;;
3967;SDS011;9221;42.646;23.380;2022-11-20T11:00:01;5.60;;;1.67;;
3967;SDS011;9221;42.646;23.380;2022-11-20T11:07:59;8.13;;;2.00;;
3967;SDS011;9221;42.646;23.380;2022-11-20T11:13:25;8.90;;;2.10;;
3967;SDS011;9221;42.646;23.380;2022-11-20T11:15:53;7.03;;;2.10;;
3967;SDS011;9221;42.646;23.380;2022-11-20T11:18:26;12.80;;;2.40;;
3967;SDS011;9221;42.646;23.380;2022-11-20T11:20:59;17.10;;;3.40;;
3967;SDS011;9221;42.646;23.380;2022-11-20T11:23:31;12.17;;;2.90;;
3967;SDS011;9221;42.646;23.380;2022-11-20T11:26:07;15.77;;;3.00;;
3967;SDS011;9221;42.646;23.380;2022-11-20T11:29:01;6.80;;;2.10;;
3967;SDS011;9221;42.646;23.380;2022-11-20T11:31:32;15.47;;;2.30;;
3967;SDS011;9221;42.646;23.380;2022-11-20T11:36:31;4.43;;;1.10;;
3967;SDS011;9221;42.646;23.380;2022-11-20T11:38:59;5.60;;;0.50;;
3967;SDS011;9221;42.646;23.380;2022-11-20T11:41:28;4.63;;;0.57;;
3967;SDS011;9221;42.646;23.380;2022-11-20T11:43:58;3.23;;;0.60;;
3967;SDS011;9221;42.646;23.380;2022-11-20T11:46:55;1.63;;;0.50;;
3967;SDS011;9221;42.646;23.380;2022-11-20T11:49:21;0.90;;;0.50;;
3967;SDS011;9221;42.646;23.380;2022-11-20T11:51:53;1.37;;;0.40;;
3967;SDS011;9221;42.646;23.380;2022-11-20T11:54:31;1.83;;;0.43;;
3967;SDS011;9221;42.646;23.380;2022-11-20T11:57:03;1.00;;;0.57;;
3967;SDS011;9221;42.646;23.380;2022-11-20T12:05:27;3.50;;;0.50;;
3967;SDS011;9221;42.646;23.380;2022-11-20T12:08:00;4.53;;;0.53;;
3967;SDS011;9221;42.646;23.380;2022-11-20T12:10:45;2.40;;;0.60;;
3967;SDS011;9221;42.646;23.380;2022-11-20T12:15:47;2.20;;;0.50;;
3967;SDS011;9221;42.646;23.380;2022-11-20T12:18:20;0.90;;;0.40;;
3967;SDS011;9221;42.646;23.380;2022-11-20T12:23:40;0.40;;;0.30;;
3967;SDS011;9221;42.646;23.380;2022-11-20T12:29:05;3.80;;;0.47;;
3967;SDS011;9221;42.646;23.380;2022-11-20T12:31:47;4.77;;;0.37;;
3967;SDS011;9221;42.646;23.380;2022-11-20T12:40:41;2.73;;;0.30;;
3967;SDS011;9221;42.646;23.380;2022-11-20T12:43:26;5.00;;;0.60;;
3967;SDS011;9221;42.646;23.380;2022-11-20T12:46:18;2.73;;;0.40;;
3967;SDS011;9221;42.646;23.380;2022-11-20T13:05:06;8.13;;;1.00;;
3967;SDS011;9221;42.646;23.380;2022-11-20T13:07:53;1.80;;;0.70;;
3967;SDS011;9221;42.646;23.380;2022-11-20T13:10:26;3.80;;;1.00;;
3967;SDS011;9221;42.646;23.380;2022-11-20T13:18:15;4.73;;;1.33;;
3967;SDS011;9221;42.646;23.380;2022-11-20T13:20:42;7.70;;;0.90;;
3967;SDS011;9221;42.646;23.380;2022-11-20T13:23:09;7.77;;;2.00;;
3967;SDS011;9221;42.646;23.380;2022-11-20T13:25:36;5.67;;;1.30;;
3967;SDS011;9221;42.646;23.380;2022-11-20T13:28:04;2.17;;;1.03;;
3967;SDS011;9221;42.646;23.380;2022-11-20T13:30:50;4.90;;;1.00;;
3967;SDS011;9221;42.646;23.380;2022-11-20T13:33:34;3.53;;;1.30;;
3967;SDS011;9221;42.646;23.380;2022-11-20T13:38:27;7.90;;;1.20;;
3967;SDS011;9221;42.646;23.380;2022-11-20T13:46:02;5.63;;;1.10;;
3967;SDS011;9221;42.646;23.380;2022-11-20T13:48:30;5.30;;;1.67;;
3967;SDS011;9221;42.646;23.380;2022-11-20T14:02:22;6.00;;;1.40;;
3967;SDS011;9221;42.646;23.380;2022-11-20T14:04:52;7.70;;;1.87;;
3967;SDS011;9221;42.646;23.380;2022-11-20T14:07:24;3.40;;;1.80;;
3967;SDS011;9221;42.646;23.380;2022-11-20T14:09:57;8.23;;;1.93;;
3967;SDS011;9221;42.646;23.380;2022-11-20T14:12:27;10.23;;;1.80;;
3967;SDS011;9221;42.646;23.380;2022-11-20T14:14:57;9.73;;;2.33;;
3967;SDS011;9221;42.646;23.380;2022-11-20T14:17:32;7.30;;;2.50;;
3967;SDS011;9221;42.646;23.380;2022-11-20T14:20:01;9.90;;;1.67;;
3967;SDS011;9221;42.646;23.380;2022-11-20T14:22:29;5.83;;;1.73;;
3967;SDS011;9221;42.646;23.380;2022-11-20T14:27:43;4.97;;;1.90;;
3967;SDS011;9221;42.646;23.380;2022-11-20T14:32:43;4.00;;;1.23;;
3967;SDS011;9221;42.646;23.380;2022-11-20T14:35:13;14.80;;;2.03;;
3967;SDS011;9221;42.646;23.380;2022-11-20T14:37:44;6.40;;;2.40;;
3967;SDS011;9221;42.646;23.380;2022-11-20T14:40:23;5.60;;;2.07;;
3967;SDS011;9221;42.646;23.380;2022-11-20T14:42:51;6.57;;;2.30;;
3967;SDS011;9221;42.646;23.380;2022-11-20T14:45:17;14.97;;;3.30;;
3967;SDS011;9221;42.646;23.380;2022-11-20T14:47:44;9.87;;;2.70;;
3967;SDS011;9221;42.646;23.380;2022-11-20T14:50:15;7.33;;;2.43;;
3967;SDS011;9221;42.646;23.380;2022-11-20T14:53:21;10.47;;;3.17;;
3967;SDS011;9221;42.646;23.380;2022-11-20T14:55:53;10.60;;;2.50;;
3967;SDS011;9221;42.646;23.380;2022-11-20T14:58:25;12.80;;;2.43;;
3967;SDS011;9221;42.646;23.380;2022-11-20T15:00:53;12.03;;;3.43;;
3967;SDS011;9221;42.646;23.380;2022-11-20T15:03:31;11.90;;;2.73;;
3967;SDS011;9221;42.646;23.380;2022-11-20T15:06:01;12.13;;;2.63;;
3967;SDS011;9221;42.646;23.380;2022-11-20T15:08:27;8.73;;;2.70;;
3967;SDS011;9221;42.646;23.380;2022-11-20T15:10:52;6.93;;;2.23;;
3967;SDS011;9221;42.646;23.380;2022-11-20T15:15:58;7.00;;;2.50;;
3967;SDS011;9221;42.646;23.380;2022-11-20T15:18:29;8.43;;;2.73;;
3967;SDS011;9221;42.646;23.380;2022-11-20T15:20:57;8.57;;;2.93;;
3967;SDS011;9221;42.646;23.380;2022-11-20T15:23:26;8.33;;;2.57;;
3967;SDS011;9221;42.646;23.380;2022-11-20T15:25:53;3.80;;;1.57;;
3967;SDS011;9221;42.646;23.380;2022-11-20T15:28:19;7.77;;;1.67;;
3967;SDS011;9221;42.646;23.380;2022-11-20T15:30:47;5.70;;;1.83;;
3967;SDS011;9221;42.646;23.380;2022-11-20T15:33:14;4.20;;;1.67;;
3967;SDS011;9221;42.646;23.380;2022-11-20T15:35:40;5.70;;;1.50;;
3967;SDS011;9221;42.646;23.380;2022-11-20T15:38:06;3.03;;;1.10;;
3967;SDS011;9221;42.646;23.380;2022-11-20T15:40:31;3.40;;;1.60;;
3967;SDS011;9221;42.646;23.380;2022-11-20T15:42:57;5.83;;;1.70;;
3967;SDS011;9221;42.646;23.380;2022-11-20T15:45:30;1.90;;;1.47;;
3967;SDS011;9221;42.646;23.380;2022-11-20T15:48:03;4.87;;;1.60;;
3967;SDS011;9221;42.646;23.380;2022-11-20T15:50:33;5.50;;;1.40;;
3967;SDS011;9221;42.646;23.380;2022-11-20T15:53:01;1.67;;;1.13;;
3967;SDS011;9221;42.646;23.380;2022-11-20T15:55:27;2.83;;;1.30;;
3967;SDS011;9221;42.646;23.380;2022-11-20T15:57:52;1.77;;;0.90;;
3967;SDS011;9221;42.646;23.380;2022-11-20T16:00:18;2.87;;;1.10;;
3967;SDS011;9221;42.646;23.380;2022-11-20T16:02:43;3.00;;;1.20;;
3967;SDS011;9221;42.646;23.380;2022-11-20T16:05:12;2.43;;;1.00;;
3967;SDS011;9221;42.646;23.380;2022-11-20T16:07:40;5.47;;;1.20;;
3967;SDS011;9221;42.646;23.380;2022-11-20T16:10:05;1.57;;;0.67;;
3967;SDS011;9221;42.646;23.380;2022-11-20T16:12:31;2.33;;;0.90;;
3967;SDS011;9221;42.646;23.380;2022-11-20T16:15:15;6.00;;;1.20;;
3967;SDS011;9221;42.646;23.380;2022-11-20T16:17:59;1.63;;;0.90;;
3967;SDS011;9221;42.646;23.380;2022-11-20T16:20:24;3.13;;;0.73;;
3967;SDS011;9221;42.646;23.380;2022-11-20T16:22:50;7.90;;;0.90;;
3967;SDS011;9221;42.646;23.380;2022-11-20T16:25:15;3.07;;;0.70;;
3967;SDS011;9221;42.646;23.380;2022-11-20T16:27:41;0.90;;;0.73;;
3967;SDS011;9221;42.646;23.380;2022-11-20T16:30:06;8.97;;;1.00;;
3967;SDS011;9221;42.646;23.380;2022-11-20T16:32:32;4.00;;;1.00;;
3967;SDS011;9221;42.646;23.380;2022-11-20T16:34:58;6.50;;;1.30;;
3967;SDS011;9221;42.646;23.380;2022-11-20T16:37:23;1.50;;;0.83;;
3967;SDS011;9221;42.646;23.380;2022-11-20T16:39:48;2.77;;;1.10;;
3967;SDS011;9221;42.646;23.380;2022-11-20T16:42:14;5.93;;;2.23;;
3967;SDS011;9221;42.646;23.380;2022-11-20T16:44:39;7.23;;;1.77;;
3967;SDS011;9221;42.646;23.380;2022-11-20T16:47:05;2.93;;;1.20;;
3967;SDS011;9221;42.646;23.380;2022-11-20T16:49:30;4.77;;;1.13;;
3967;SDS011;9221;42.646;23.380;2022-11-20T16:51:57;13.07;;;2.90;;
3967;SDS011;9221;42.646;23.380;2022-11-20T16:54:23;6.13;;;2.00;;
3967;SDS011;9221;42.646;23.380;2022-11-20T16:56:48;2.63;;;1.60;;
3967;SDS011;9221;42.646;23.380;2022-11-20T16:59:15;4.23;;;2.03;;
3967;SDS011;9221;42.646;23.380;2022-11-20T17:01:41;5.00;;;2.60;;
3967;SDS011;9221;42.646;23.380;2022-11-20T17:04:07;7.73;;;3.70;;
3967;SDS011;9221;42.646;23.380;2022-11-20T17:06:34;6.17;;;3.17;;
3967;SDS011;9221;42.646;23.380;2022-11-20T17:09:00;6.97;;;2.90;;
3967;SDS011;9221;42.646;23.380;2022-11-20T17:11:26;11.77;;;5.60;;
3967;SDS011;9221;42.646;23.380;2022-11-20T17:13:56;9.53;;;2.80;;
3967;SDS011;9221;42.646;23.380;2022-11-20T17:16:24;7.87;;;3.13;;
3967;SDS011;9221;42.646;23.380;2022-11-20T17:18:50;7.73;;;2.37;;